Time,TemperatureF,DewpointF,PressureIn,WindDirection,WindDirectionDegrees,WindSpeedMPH,WindSpeedGustMPH,Humidity,HourlyPrecipIn,Conditions,Clouds,dailyrainin,SoftwareType,DateUTC
2013-01-20 00:00:00,40.3,29.8,30.14,North,0,0.0,0.0,66,0.00,,,0.16,WUHU216HW,2013-01-20 05:00:00,
2013-01-20 00:01:00,40.3,29.8,30.14,North,0,0.0,0.0,66,0.00,,,0.00,WUHU216HW,2013-01-20 05:01:00,
2013-01-20 00:03:00,40.3,29.8,30.14,North,0,0.0,0.0,66,0.00,,,0.00,WUHU216HW,2013-01-20 05:03:00,
2013-01-20 00:08:00,40.1,29.6,30.14,North,0,0.0,0.0,66,0.00,,,0.00,WUHU216HW,2013-01-20 05:08:00,
2013-01-20 00:13:00,40.0,29.4,30.14,North,0,0.0,0.0,66,0.00,,,0.00,WUHU216HW,2013-01-20 05:13:00,
2013-01-20 00:18:00,40.0,29.1,30.14,North,0,0.0,0.0,65,0.00,,,0.00,WUHU216HW,2013-01-20 05:18:00,
2013-01-20 00:23:00,39.6,28.7,30.14,North,0,0.0,0.0,65,0.00,,,0.00,WUHU216HW,2013-01-20 05:23:00,
2013-01-20 00:28:00,39.6,28.7,30.14,North,0,0.0,0.0,65,0.00,,,0.00,WUHU216HW,2013-01-20 05:28:00,
2013-01-20 00:33:00,39.6,28.7,30.13,North,0,0.0,0.0,65,0.00,,,0.00,WUHU216HW,2013-01-20 05:33:00,
2013-01-20 00:38:00,39.4,28.5,30.14,North,0,0.0,0.0,65,0.00,,,0.00,WUHU216HW,2013-01-20 05:38:00,
2013-01-20 00:43:00,39.2,28.4,30.13,North,0,0.0,0.0,65,0.00,,,0.00,WUHU216HW,2013-01-20 05:43:00,
2013-01-20 00:48:00,39.2,28.4,30.14,North,0,0.0,0.0,65,0.00,,,0.00,WUHU216HW,2013-01-20 05:48:00,
2013-01-20 00:53:00,39.2,28.4,30.13,North,0,0.0,0.0,65,0.00,,,0.00,WUHU216HW,2013-01-20 05:53:00,
2013-01-20 00:58:00,39.4,28.5,30.13,North,0,0.0,0.0,65,0.00,,,0.00,WUHU216HW,2013-01-20 05:58:00,
2013-01-20 01:03:00,39.6,28.7,30.13,North,0,0.0,0.0,65,0.00,,,0.00,WUHU216HW,2013-01-20 06:03:00,
2013-01-20 01:08:00,39.6,28.7,30.13,North,0,0.0,0.0,65,0.00,,,0.00,WUHU216HW,2013-01-20 06:08:00,
2013-01-20 01:13:00,39.4,28.5,30.13,North,0,0.0,0.0,65,0.00,,,0.00,WUHU216HW,2013-01-20 06:13:00,
2013-01-20 01:18:00,39.4,28.5,30.12,North,0,0.0,0.0,65,0.00,,,0.00,WUHU216HW,2013-01-20 06:18:00,
2013-01-20 01:23:00,39.6,28.7,30.12,North,0,0.0,0.0,65,0.00,,,0.00,WUHU216HW,2013-01-20 06:23:00,
2013-01-20 01:28:00,39.6,28.7,30.12,North,0,0.0,0.0,65,0.00,,,0.00,WUHU216HW,2013-01-20 06:28:00,
2013-01-20 01:33:00,39.4,28.5,30.12,North,0,0.0,0.0,65,0.00,,,0.00,WUHU216HW,2013-01-20 06:33:00,
2013-01-20 01:38:00,39.2,28.4,30.12,North,0,0.0,0.0,65,0.00,,,0.00,WUHU216HW,2013-01-20 06:38:00,
2013-01-20 01:43:00,39.4,28.5,30.11,North,0,0.0,0.0,65,0.00,,,0.00,WUHU216HW,2013-01-20 06:43:00,
2013-01-20 01:48:00,39.2,28.4,30.12,North,0,0.0,0.0,65,0.00,,,0.00,WUHU216HW,2013-01-20 06:48:00,
2013-01-20 01:53:00,39.2,28.4,30.12,North,0,0.0,0.0,65,0.00,,,0.00,WUHU216HW,2013-01-20 06:53:00,
2013-01-20 01:58:00,39.4,28.5,30.11,North,0,0.0,0.0,65,0.00,,,0.00,WUHU216HW,2013-01-20 06:58:00,
2013-01-20 02:03:00,39.4,28.5,30.11,North,0,0.0,0.0,65,0.00,,,0.00,WUHU216HW,2013-01-20 07:03:00,
2013-01-20 02:08:00,39.4,28.5,30.11,North,0,0.0,0.0,65,0.00,,,0.00,WUHU216HW,2013-01-20 07:08:00,
2013-01-20 02:13:00,39.2,28.4,30.11,North,0,0.0,0.0,65,0.00,,,0.00,WUHU216HW,2013-01-20 07:13:00,
2013-01-20 02:18:00,39.2,28.4,30.10,North,0,0.0,0.0,65,0.00,,,0.00,WUHU216HW,2013-01-20 07:18:00,
2013-01-20 02:23:00,39.1,28.2,30.10,North,0,0.0,0.0,65,0.00,,,0.00,WUHU216HW,2013-01-20 07:23:00,
2013-01-20 02:28:00,38.9,28.0,30.10,North,0,0.0,0.0,65,0.00,,,0.00,WUHU216HW,2013-01-20 07:28:00,
2013-01-20 02:33:00,38.9,28.0,30.10,North,0,0.0,0.0,65,0.00,,,0.00,WUHU216HW,2013-01-20 07:33:00,
2013-01-20 02:38:00,38.7,27.9,30.10,North,0,0.0,0.0,65,0.00,,,0.00,WUHU216HW,2013-01-20 07:38:00,
2013-01-20 02:43:00,38.5,27.7,30.09,North,0,0.0,0.0,65,0.00,,,0.00,WUHU216HW,2013-01-20 07:43:00,
2013-01-20 02:48:00,38.5,27.4,30.09,North,0,0.0,0.0,64,0.00,,,0.00,WUHU216HW,2013-01-20 07:48:00,
2013-01-20 02:53:00,38.5,27.7,30.09,North,0,0.0,0.0,65,0.00,,,0.00,WUHU216HW,2013-01-20 07:53:00,
2013-01-20 02:58:00,38.3,27.2,30.09,North,0,0.0,0.0,64,0.00,,,0.00,WUHU216HW,2013-01-20 07:58:00,
2013-01-20 03:03:00,38.2,27.0,30.09,North,0,0.0,0.0,64,0.00,,,0.00,WUHU216HW,2013-01-20 08:03:00,
2013-01-20 03:08:00,38.0,26.8,30.09,North,0,0.0,0.0,64,0.00,,,0.00,WUHU216HW,2013-01-20 08:08:00,
2013-01-20 03:13:00,37.8,26.6,30.09,North,0,0.0,0.0,64,0.00,,,0.00,WUHU216HW,2013-01-20 08:13:00,
2013-01-20 03:18:00,37.6,26.6,30.09,North,0,0.0,0.0,64,0.00,,,0.00,WUHU216HW,2013-01-20 08:18:00,
2013-01-20 03:23:00,37.6,26.6,30.09,North,0,0.0,0.0,64,0.00,,,0.00,WUHU216HW,2013-01-20 08:23:00,
2013-01-20 03:28:00,37.6,26.6,30.09,North,0,0.0,0.0,64,0.00,,,0.00,WUHU216HW,2013-01-20 08:28:00,
2013-01-20 03:33:00,37.6,26.6,30.09,North,0,0.0,0.0,64,0.00,,,0.00,WUHU216HW,2013-01-20 08:33:00,
2013-01-20 03:38:00,37.6,26.6,30.09,North,0,0.0,0.0,64,0.00,,,0.00,WUHU216HW,2013-01-20 08:38:00,
2013-01-20 03:43:00,37.4,26.4,30.09,North,0,0.0,0.0,64,0.00,,,0.00,WUHU216HW,2013-01-20 08:43:00,
2013-01-20 03:48:00,37.4,26.4,30.08,North,0,0.0,0.0,64,0.00,,,0.00,WUHU216HW,2013-01-20 08:48:00,
2013-01-20 03:53:00,37.4,26.0,30.08,North,0,0.0,0.0,63,0.00,,,0.00,WUHU216HW,2013-01-20 08:53:00,
2013-01-20 03:58:00,37.1,25.7,30.08,North,0,0.0,0.0,63,0.00,,,0.00,WUHU216HW,2013-01-20 08:58:00,
2013-01-20 04:03:00,37.1,25.7,30.07,North,0,0.0,0.0,63,0.00,,,0.00,WUHU216HW,2013-01-20 09:03:00,
2013-01-20 04:08:00,37.3,25.8,30.07,North,0,0.0,0.0,63,0.00,,,0.00,WUHU216HW,2013-01-20 09:08:00,
2013-01-20 04:13:00,37.4,26.0,30.07,North,0,0.0,0.0,63,0.00,,,0.00,WUHU216HW,2013-01-20 09:13:00,
2013-01-20 04:18:00,37.4,26.0,30.07,North,0,0.0,0.0,63,0.00,,,0.00,WUHU216HW,2013-01-20 09:18:00,
2013-01-20 04:23:00,37.4,26.0,30.07,North,0,0.0,0.0,63,0.00,,,0.00,WUHU216HW,2013-01-20 09:23:00,
2013-01-20 04:28:00,37.4,26.0,30.07,North,0,0.0,0.0,63,0.00,,,0.00,WUHU216HW,2013-01-20 09:28:00,
2013-01-20 04:33:00,37.4,26.0,30.07,North,0,0.0,0.0,63,0.00,,,0.00,WUHU216HW,2013-01-20 09:33:00,
2013-01-20 04:38:00,37.4,26.0,30.07,North,0,0.0,0.0,63,0.00,,,0.00,WUHU216HW,2013-01-20 09:38:00,
2013-01-20 04:43:00,37.4,26.0,30.07,North,0,0.0,0.0,63,0.00,,,0.00,WUHU216HW,2013-01-20 09:43:00,
2013-01-20 04:48:00,37.4,26.0,30.07,North,0,0.0,0.0,63,0.00,,,0.00,WUHU216HW,2013-01-20 09:48:00,
2013-01-20 04:53:00,37.4,26.0,30.07,North,0,0.0,0.0,63,0.00,,,0.00,WUHU216HW,2013-01-20 09:53:00,
2013-01-20 04:58:00,37.4,26.0,30.07,North,0,0.0,0.0,63,0.00,,,0.00,WUHU216HW,2013-01-20 09:58:00,
2013-01-20 05:03:00,37.3,25.8,30.07,North,0,0.0,0.0,63,0.00,,,0.00,WUHU216HW,2013-01-20 10:03:00,
2013-01-20 05:08:00,37.1,25.7,30.07,North,0,0.0,0.0,63,0.00,,,0.00,WUHU216HW,2013-01-20 10:08:00,
2013-01-20 05:13:00,37.1,25.7,30.06,North,0,0.0,0.0,63,0.00,,,0.00,WUHU216HW,2013-01-20 10:13:00,
2013-01-20 05:18:00,37.1,25.7,30.06,North,0,0.0,0.0,63,0.00,,,0.00,WUHU216HW,2013-01-20 10:18:00,
2013-01-20 05:23:00,37.1,25.7,30.07,North,0,0.0,0.0,63,0.00,,,0.00,WUHU216HW,2013-01-20 10:23:00,
2013-01-20 05:28:00,37.1,25.7,30.07,North,0,0.0,0.0,63,0.00,,,0.00,WUHU216HW,2013-01-20 10:28:00,
2013-01-20 05:33:00,37.1,25.7,30.07,North,0,0.0,0.0,63,0.00,,,0.00,WUHU216HW,2013-01-20 10:33:00,
2013-01-20 05:38:00,37.1,25.7,30.07,North,0,0.0,0.0,63,0.00,,,0.00,WUHU216HW,2013-01-20 10:38:00,
2013-01-20 05:43:00,37.1,25.7,30.07,North,0,0.0,0.0,63,0.00,,,0.00,WUHU216HW,2013-01-20 10:43:00,
2013-01-20 05:48:00,36.9,25.5,30.07,North,0,0.0,0.0,63,0.00,,,0.00,WUHU216HW,2013-01-20 10:48:00,
2013-01-20 05:53:00,37.1,25.7,30.07,North,0,0.0,0.0,63,0.00,,,0.00,WUHU216HW,2013-01-20 10:53:00,
2013-01-20 05:58:00,37.1,25.7,30.07,North,0,0.0,0.0,63,0.00,,,0.00,WUHU216HW,2013-01-20 10:58:00,
2013-01-20 06:03:00,37.1,25.7,30.07,North,0,0.0,0.0,63,0.00,,,0.00,WUHU216HW,2013-01-20 11:03:00,
2013-01-20 06:08:00,37.1,25.7,30.06,North,0,0.0,0.0,63,0.00,,,0.00,WUHU216HW,2013-01-20 11:08:00,
2013-01-20 06:13:00,37.1,25.7,30.07,North,0,0.0,0.0,63,0.00,,,0.00,WUHU216HW,2013-01-20 11:13:00,
2013-01-20 06:18:00,37.1,25.7,30.07,North,0,0.0,0.0,63,0.00,,,0.00,WUHU216HW,2013-01-20 11:18:00,
2013-01-20 06:23:00,37.1,25.7,30.07,North,0,0.0,0.0,63,0.00,,,0.00,WUHU216HW,2013-01-20 11:23:00,
2013-01-20 06:28:00,37.1,25.7,30.06,North,0,0.0,0.0,63,0.00,,,0.00,WUHU216HW,2013-01-20 11:28:00,
2013-01-20 06:33:00,37.1,25.7,30.06,North,0,0.0,0.0,63,0.00,,,0.00,WUHU216HW,2013-01-20 11:33:00,
2013-01-20 06:38:00,36.9,25.5,30.06,North,0,0.0,0.0,63,0.00,,,0.00,WUHU216HW,2013-01-20 11:38:00,
2013-01-20 06:43:00,36.7,25.3,30.06,North,0,0.0,0.0,63,0.00,,,0.00,WUHU216HW,2013-01-20 11:43:00,
2013-01-20 06:48:00,36.9,25.5,30.06,North,0,0.0,0.0,63,0.00,,,0.00,WUHU216HW,2013-01-20 11:48:00,
2013-01-20 06:53:00,37.1,25.7,30.06,North,0,0.0,0.0,63,0.00,,,0.00,WUHU216HW,2013-01-20 11:53:00,
2013-01-20 06:58:00,37.4,26.0,30.06,North,0,0.0,0.0,63,0.00,,,0.00,WUHU216HW,2013-01-20 11:58:00,
2013-01-20 07:03:00,37.6,26.6,30.06,North,0,0.0,0.0,64,0.00,,,0.00,WUHU216HW,2013-01-20 12:03:00,
2013-01-20 07:08:00,37.8,26.6,30.06,North,0,0.0,0.0,64,0.00,,,0.00,WUHU216HW,2013-01-20 12:08:00,
2013-01-20 07:13:00,38.2,27.0,30.06,North,0,0.0,0.0,64,0.00,,,0.00,WUHU216HW,2013-01-20 12:13:00,
2013-01-20 07:18:00,38.2,27.0,30.07,North,0,0.0,0.0,64,0.00,,,0.00,WUHU216HW,2013-01-20 12:18:00,
2013-01-20 07:23:00,38.0,26.8,30.07,North,0,0.0,0.0,64,0.00,,,0.00,WUHU216HW,2013-01-20 12:23:00,
2013-01-20 07:28:00,38.0,26.8,30.07,North,0,0.0,0.0,64,0.00,,,0.00,WUHU216HW,2013-01-20 12:28:00,
2013-01-20 07:33:00,37.8,26.6,30.07,North,0,0.0,0.0,64,0.00,,,0.00,WUHU216HW,2013-01-20 12:33:00,
2013-01-20 07:38:00,37.6,26.6,30.07,North,0,0.0,0.0,64,0.00,,,0.00,WUHU216HW,2013-01-20 12:38:00,
2013-01-20 07:43:00,37.4,26.4,30.07,North,0,0.0,0.0,64,0.00,,,0.00,WUHU216HW,2013-01-20 12:43:00,
2013-01-20 07:48:00,37.1,26.0,30.07,North,0,0.0,0.0,64,0.00,,,0.00,WUHU216HW,2013-01-20 12:48:00,
2013-01-20 07:53:00,37.1,26.0,30.07,North,0,0.0,0.0,64,0.00,,,0.00,WUHU216HW,2013-01-20 12:53:00,
2013-01-20 07:58:00,36.9,25.8,30.07,North,0,0.0,0.0,64,0.00,,,0.00,WUHU216HW,2013-01-20 12:58:00,
2013-01-20 08:03:00,36.9,25.5,30.08,North,0,0.0,0.0,63,0.00,,,0.00,WUHU216HW,2013-01-20 13:03:00,
2013-01-20 08:08:00,37.1,25.7,30.08,North,0,0.0,0.0,63,0.00,,,0.00,WUHU216HW,2013-01-20 13:08:00,
2013-01-20 08:13:00,37.3,25.8,30.08,North,0,0.0,0.0,63,0.00,,,0.00,WUHU216HW,2013-01-20 13:13:00,
2013-01-20 08:18:00,37.6,26.1,30.08,North,0,0.0,0.0,63,0.00,,,0.00,WUHU216HW,2013-01-20 13:18:00,
2013-01-20 08:23:00,37.8,26.3,30.08,North,0,0.0,0.0,63,0.00,,,0.00,WUHU216HW,2013-01-20 13:23:00,
2013-01-20 08:28:00,38.3,26.8,30.08,North,0,0.0,0.0,63,0.00,,,0.00,WUHU216HW,2013-01-20 13:28:00,
2013-01-20 08:33:00,38.7,27.5,30.08,North,0,0.0,0.0,64,0.00,,,0.00,WUHU216HW,2013-01-20 13:33:00,
2013-01-20 08:38:00,38.9,27.6,30.08,North,0,0.0,0.0,64,0.00,,,0.00,WUHU216HW,2013-01-20 13:38:00,
2013-01-20 08:43:00,39.1,28.2,30.08,North,0,0.0,0.0,65,0.00,,,0.00,WUHU216HW,2013-01-20 13:43:00,
2013-01-20 08:48:00,39.2,28.4,30.08,North,0,0.0,0.0,65,0.00,,,0.00,WUHU216HW,2013-01-20 13:48:00,
2013-01-20 08:53:00,39.6,28.4,30.08,North,0,0.0,0.0,64,0.00,,,0.00,WUHU216HW,2013-01-20 13:53:00,
2013-01-20 08:58:00,39.6,28.4,30.09,North,0,0.0,0.0,64,0.00,,,0.00,WUHU216HW,2013-01-20 13:58:00,
2013-01-20 09:03:00,40.0,29.1,30.09,North,0,0.0,0.0,65,0.00,,,0.00,WUHU216HW,2013-01-20 14:03:00,
2013-01-20 09:08:00,40.3,29.4,30.08,North,0,0.0,0.0,65,0.00,,,0.00,WUHU216HW,2013-01-20 14:08:00,
2013-01-20 09:13:00,40.5,29.6,30.09,North,0,0.0,0.0,65,0.00,,,0.00,WUHU216HW,2013-01-20 14:13:00,
2013-01-20 09:18:00,41.0,30.5,30.09,North,0,0.0,0.0,66,0.00,,,0.00,WUHU216HW,2013-01-20 14:18:00,
2013-01-20 09:23:00,41.6,31.1,30.08,North,0,0.0,0.0,66,0.00,,,0.00,WUHU216HW,2013-01-20 14:23:00,
2013-01-20 09:28:00,42.1,31.6,30.09,North,0,0.0,0.0,66,0.00,,,0.00,WUHU216HW,2013-01-20 14:28:00,
2013-01-20 09:33:00,42.8,31.9,30.09,North,0,0.0,0.0,65,0.00,,,0.00,WUHU216HW,2013-01-20 14:33:00,
2013-01-20 09:38:00,43.2,32.6,30.09,North,0,0.0,0.0,66,0.00,,,0.00,WUHU216HW,2013-01-20 14:38:00,
2013-01-20 09:43:00,43.6,32.6,30.09,North,0,0.0,0.0,65,0.00,,,0.00,WUHU216HW,2013-01-20 14:43:00,
2013-01-20 09:48:00,43.9,32.9,30.09,North,0,0.0,0.0,65,0.00,,,0.00,WUHU216HW,2013-01-20 14:48:00,
2013-01-20 09:53:00,44.3,32.9,30.09,North,0,0.0,0.0,64,0.00,,,0.00,WUHU216HW,2013-01-20 14:53:00,
2013-01-20 09:58:00,44.8,33.4,30.09,North,0,0.0,0.0,64,0.00,,,0.00,WUHU216HW,2013-01-20 14:58:00,
2013-01-20 10:03:00,45.5,33.7,30.09,North,0,0.0,0.0,63,0.00,,,0.00,WUHU216HW,2013-01-20 15:03:00,
2013-01-20 10:08:00,46.1,33.4,30.09,North,0,0.0,0.0,61,0.00,,,0.00,WUHU216HW,2013-01-20 15:08:00,
2013-01-20 10:13:00,46.6,33.5,30.09,North,0,0.0,0.0,60,0.00,,,0.00,WUHU216HW,2013-01-20 15:13:00,
2013-01-20 10:18:00,47.2,34.4,30.09,North,0,0.0,0.0,61,0.00,,,0.00,WUHU216HW,2013-01-20 15:18:00,
2013-01-20 10:23:00,47.9,34.7,30.09,North,0,0.0,0.0,60,0.00,,,0.00,WUHU216HW,2013-01-20 15:23:00,
2013-01-20 10:28:00,48.4,34.8,30.09,North,0,0.0,0.0,59,0.00,,,0.00,WUHU216HW,2013-01-20 15:28:00,
2013-01-20 10:33:00,48.6,34.5,30.09,North,0,0.0,0.0,58,0.00,,,0.00,WUHU216HW,2013-01-20 15:33:00,
2013-01-20 10:38:00,49.0,33.9,30.09,North,0,0.0,0.0,56,0.00,,,0.00,WUHU216HW,2013-01-20 15:38:00,
2013-01-20 10:43:00,49.5,33.9,30.09,North,0,0.0,0.0,55,0.00,,,0.00,WUHU216HW,2013-01-20 15:43:00,
2013-01-20 10:48:00,50.0,34.9,30.08,North,0,0.0,0.0,56,0.00,,,0.00,WUHU216HW,2013-01-20 15:48:00,
2013-01-20 10:53:00,50.2,35.6,30.08,North,0,0.0,0.0,57,0.00,,,0.00,WUHU216HW,2013-01-20 15:53:00,
2013-01-20 10:58:00,50.8,36.5,30.08,North,0,0.0,0.0,58,0.00,,,0.00,WUHU216HW,2013-01-20 15:58:00,
2013-01-20 11:03:00,50.8,36.0,30.08,North,0,0.0,0.0,57,0.00,,,0.00,WUHU216HW,2013-01-20 16:03:00,
2013-01-20 11:08:00,51.5,36.6,30.08,North,0,0.0,0.0,57,0.00,,,0.00,WUHU216HW,2013-01-20 16:08:00,
2013-01-20 11:13:00,52.0,36.3,30.08,North,0,0.0,0.0,55,0.00,,,0.00,WUHU216HW,2013-01-20 16:13:00,
2013-01-20 11:18:00,52.4,36.6,30.07,North,0,0.0,0.0,55,0.00,,,0.00,WUHU216HW,2013-01-20 16:18:00,
2013-01-20 11:23:00,52.6,35.8,30.07,North,0,0.0,0.0,53,0.00,,,0.00,WUHU216HW,2013-01-20 16:23:00,
2013-01-20 11:28:00,52.9,36.2,30.07,North,0,0.0,0.0,53,0.00,,,0.00,WUHU216HW,2013-01-20 16:28:00,
2013-01-20 11:34:00,52.9,35.7,30.07,North,0,0.0,0.0,52,0.00,,,0.00,WUHU216HW,2013-01-20 16:34:00,
2013-01-20 11:39:00,53.5,37.6,30.06,North,0,0.0,0.0,55,0.00,,,0.00,WUHU216HW,2013-01-20 16:39:00,
2013-01-20 11:44:00,53.8,36.5,30.06,North,0,0.0,0.0,52,0.00,,,0.00,WUHU216HW,2013-01-20 16:44:00,
2013-01-20 11:49:00,54.4,37.1,30.05,North,0,0.0,0.0,52,0.00,,,0.00,WUHU216HW,2013-01-20 16:49:00,
2013-01-20 11:53:00,54.9,36.6,30.05,North,0,0.0,0.0,50,0.00,,,0.00,WUHU216HW,2013-01-20 16:53:00,
2013-01-20 11:58:00,55.1,36.7,30.05,North,0,0.0,0.0,50,0.00,,,0.00,WUHU216HW,2013-01-20 16:58:00,
2013-01-20 12:03:00,55.6,37.3,30.05,North,0,0.0,0.0,50,0.00,,,0.00,WUHU216HW,2013-01-20 17:03:00,
2013-01-20 12:08:00,55.8,36.4,30.04,North,0,0.0,0.0,48,0.00,,,0.00,WUHU216HW,2013-01-20 17:08:00,
2013-01-20 12:13:00,56.0,37.1,30.04,North,0,0.0,0.0,49,0.00,,,0.00,WUHU216HW,2013-01-20 17:13:00,
2013-01-20 12:18:00,56.2,37.3,30.04,North,0,0.0,0.0,49,0.00,,,0.00,WUHU216HW,2013-01-20 17:18:00,
2013-01-20 12:23:00,56.5,37.0,30.04,North,0,0.0,0.0,48,0.00,,,0.00,WUHU216HW,2013-01-20 17:23:00,
2013-01-20 12:28:00,56.9,38.0,30.03,North,0,0.0,0.0,49,0.00,,,0.00,WUHU216HW,2013-01-20 17:28:00,
2013-01-20 12:33:00,56.9,36.8,30.03,North,0,0.0,0.0,47,0.00,,,0.00,WUHU216HW,2013-01-20 17:33:00,
2013-01-20 12:38:00,56.9,36.3,30.03,North,0,0.0,0.0,46,0.00,,,0.00,WUHU216HW,2013-01-20 17:38:00,
2013-01-20 12:43:00,57.1,37.0,30.03,North,0,0.0,0.0,47,0.00,,,0.00,WUHU216HW,2013-01-20 17:43:00,
2013-01-20 12:48:00,57.2,36.0,30.03,North,0,0.0,0.0,45,0.00,,,0.00,WUHU216HW,2013-01-20 17:48:00,
2013-01-20 12:53:00,57.2,36.5,30.03,North,0,0.0,0.0,46,0.00,,,0.00,WUHU216HW,2013-01-20 17:53:00,
2013-01-20 12:58:00,57.4,37.9,30.02,North,0,0.0,0.0,48,0.00,,,0.00,WUHU216HW,2013-01-20 17:58:00,
2013-01-20 13:03:00,57.6,36.4,30.02,North,0,0.0,0.0,45,0.00,,,0.00,WUHU216HW,2013-01-20 18:03:00,
2013-01-20 13:08:00,57.6,37.4,30.02,North,0,0.0,0.0,47,0.00,,,0.00,WUHU216HW,2013-01-20 18:08:00,
2013-01-20 13:13:00,57.8,37.6,30.01,North,0,0.0,0.0,47,0.00,,,0.00,WUHU216HW,2013-01-20 18:13:00,
2013-01-20 13:18:00,58.0,36.1,30.01,North,0,0.0,0.0,44,0.00,,,0.00,WUHU216HW,2013-01-20 18:18:00,
2013-01-20 13:23:00,58.0,36.1,30.01,North,0,0.0,0.0,44,0.00,,,0.00,WUHU216HW,2013-01-20 18:23:00,
2013-01-20 13:28:00,58.0,35.5,30.01,North,0,0.0,0.0,43,0.00,,,0.00,WUHU216HW,2013-01-20 18:28:00,
2013-01-20 13:33:00,58.1,36.3,30.01,North,0,0.0,0.0,44,0.00,,,0.00,WUHU216HW,2013-01-20 18:33:00,
2013-01-20 13:38:00,58.1,36.8,30.01,North,0,0.0,0.0,45,0.00,,,0.00,WUHU216HW,2013-01-20 18:38:00,
2013-01-20 13:43:00,58.1,36.8,30.01,North,0,0.0,0.0,45,0.00,,,0.00,WUHU216HW,2013-01-20 18:43:00,
2013-01-20 13:48:00,58.0,36.1,30.01,North,0,0.0,0.0,44,0.00,,,0.00,WUHU216HW,2013-01-20 18:48:00,
2013-01-20 13:53:00,58.3,36.4,30.01,North,0,0.0,0.0,44,0.00,,,0.00,WUHU216HW,2013-01-20 18:53:00,
2013-01-20 13:58:00,58.5,36.0,30.01,North,0,0.0,0.0,43,0.00,,,0.00,WUHU216HW,2013-01-20 18:58:00,
2013-01-20 14:03:00,58.5,36.0,30.00,North,0,0.0,0.0,43,0.00,,,0.00,WUHU216HW,2013-01-20 19:03:00,
2013-01-20 14:08:00,58.5,36.5,30.01,North,0,0.0,0.0,44,0.00,,,0.00,WUHU216HW,2013-01-20 19:08:00,
2013-01-20 14:13:00,58.7,36.2,30.00,North,0,0.0,0.0,43,0.00,,,0.00,WUHU216HW,2013-01-20 19:13:00,
2013-01-20 14:18:00,58.7,36.2,30.00,North,0,0.0,0.0,43,0.00,,,0.00,WUHU216HW,2013-01-20 19:18:00,
2013-01-20 14:23:00,58.9,36.9,30.00,North,0,0.0,0.0,44,0.00,,,0.00,WUHU216HW,2013-01-20 19:23:00,
2013-01-20 14:28:00,59.0,37.1,30.00,North,0,0.0,0.0,44,0.00,,,0.00,WUHU216HW,2013-01-20 19:28:00,
2013-01-20 14:33:00,59.0,37.1,30.00,North,0,0.0,0.0,44,0.00,,,0.00,WUHU216HW,2013-01-20 19:33:00,
2013-01-20 14:38:00,59.0,35.3,30.00,North,0,0.0,0.0,41,0.00,,,0.00,WUHU216HW,2013-01-20 19:38:00,
2013-01-20 14:43:00,59.0,35.3,30.00,North,0,0.0,0.0,41,0.00,,,0.00,WUHU216HW,2013-01-20 19:43:00,
2013-01-20 14:48:00,59.0,35.9,30.00,North,0,0.0,0.0,42,0.00,,,0.00,WUHU216HW,2013-01-20 19:48:00,
2013-01-20 14:53:00,59.0,35.9,30.00,North,0,0.0,0.0,42,0.00,,,0.00,WUHU216HW,2013-01-20 19:53:00,
2013-01-20 14:58:00,59.0,36.5,29.99,North,0,0.0,0.0,43,0.00,,,0.00,WUHU216HW,2013-01-20 19:58:00,
2013-01-20 15:03:00,59.0,35.9,29.99,North,0,0.0,0.0,42,0.00,,,0.00,WUHU216HW,2013-01-20 20:03:00,
2013-01-20 15:08:00,59.0,35.9,29.99,North,0,0.0,0.0,42,0.00,,,0.00,WUHU216HW,2013-01-20 20:08:00,
2013-01-20 15:13:00,59.0,37.1,29.99,North,0,0.0,0.0,44,0.00,,,0.00,WUHU216HW,2013-01-20 20:13:00,
2013-01-20 15:18:00,59.2,37.2,29.99,North,0,0.0,0.0,44,0.00,,,0.00,WUHU216HW,2013-01-20 20:18:00,
2013-01-20 15:23:00,59.4,37.4,29.99,North,0,0.0,0.0,44,0.00,,,0.00,WUHU216HW,2013-01-20 20:23:00,
2013-01-20 15:28:00,59.2,36.6,29.99,North,0,0.0,0.0,43,0.00,,,0.00,WUHU216HW,2013-01-20 20:28:00,
2013-01-20 15:33:00,59.2,37.2,29.99,North,0,0.0,0.0,44,0.00,,,0.00,WUHU216HW,2013-01-20 20:33:00,
2013-01-20 15:38:00,59.0,37.6,29.99,North,0,0.0,0.0,45,0.00,,,0.00,WUHU216HW,2013-01-20 20:38:00,
2013-01-20 15:43:00,59.0,36.5,29.99,North,0,0.0,0.0,43,0.00,,,0.00,WUHU216HW,2013-01-20 20:43:00,
2013-01-20 15:48:00,59.0,35.9,29.99,North,0,0.0,0.0,42,0.00,,,0.00,WUHU216HW,2013-01-20 20:48:00,
2013-01-20 15:53:00,59.0,37.1,29.99,North,0,0.0,0.0,44,0.00,,,0.00,WUHU216HW,2013-01-20 20:53:00,
2013-01-20 15:58:00,59.0,36.5,29.99,North,0,0.0,0.0,43,0.00,,,0.00,WUHU216HW,2013-01-20 20:58:00,
2013-01-20 16:03:00,59.0,37.1,29.99,North,0,0.0,0.0,44,0.00,,,0.00,WUHU216HW,2013-01-20 21:03:00,
2013-01-20 16:08:00,58.9,37.4,29.99,North,0,0.0,0.0,45,0.00,,,0.00,WUHU216HW,2013-01-20 21:08:00,
2013-01-20 16:13:00,58.7,36.7,29.99,North,0,0.0,0.0,44,0.00,,,0.00,WUHU216HW,2013-01-20 21:13:00,
2013-01-20 16:18:00,58.7,35.6,29.99,North,0,0.0,0.0,42,0.00,,,0.00,WUHU216HW,2013-01-20 21:18:00,
2013-01-20 16:23:00,58.5,36.0,29.99,North,0,0.0,0.0,43,0.00,,,0.00,WUHU216HW,2013-01-20 21:23:00,
2013-01-20 16:28:00,58.5,36.5,29.99,North,0,0.0,0.0,44,0.00,,,0.00,WUHU216HW,2013-01-20 21:28:00,
2013-01-20 16:33:00,58.3,37.0,30.00,North,0,0.0,0.0,45,0.00,,,0.00,WUHU216HW,2013-01-20 21:33:00,
2013-01-20 16:38:00,58.1,36.3,30.00,North,0,0.0,0.0,44,0.00,,,0.00,WUHU216HW,2013-01-20 21:38:00,
2013-01-20 16:43:00,58.1,36.8,30.00,North,0,0.0,0.0,45,0.00,,,0.00,WUHU216HW,2013-01-20 21:43:00,
2013-01-20 16:48:00,58.0,35.5,30.00,North,0,0.0,0.0,43,0.00,,,0.00,WUHU216HW,2013-01-20 21:48:00,
2013-01-20 16:53:00,58.0,36.1,30.00,North,0,0.0,0.0,44,0.00,,,0.00,WUHU216HW,2013-01-20 21:53:00,
2013-01-20 16:58:00,57.8,35.4,30.00,North,0,0.0,0.0,43,0.00,,,0.00,WUHU216HW,2013-01-20 21:58:00,
2013-01-20 17:03:00,57.4,36.7,30.00,North,0,0.0,0.0,46,0.00,,,0.00,WUHU216HW,2013-01-20 22:03:00,
2013-01-20 17:08:00,56.9,36.3,30.00,North,0,0.0,0.0,46,0.00,,,0.00,WUHU216HW,2013-01-20 22:08:00,
2013-01-20 17:13:00,56.7,36.6,30.00,North,0,0.0,0.0,47,0.00,,,0.00,WUHU216HW,2013-01-20 22:13:00,
2013-01-20 17:18:00,56.2,36.6,30.00,North,0,0.0,0.0,48,0.00,,,0.00,WUHU216HW,2013-01-20 22:18:00,
2013-01-20 17:23:00,56.0,36.5,30.01,North,0,0.0,0.0,48,0.00,,,0.00,WUHU216HW,2013-01-20 22:23:00,
2013-01-20 17:28:00,55.6,36.7,30.01,North,0,0.0,0.0,49,0.00,,,0.00,WUHU216HW,2013-01-20 22:28:00,
2013-01-20 17:33:00,55.1,36.7,30.01,North,0,0.0,0.0,50,0.00,,,0.00,WUHU216HW,2013-01-20 22:33:00,
2013-01-20 17:38:00,54.7,36.5,30.01,North,0,0.0,0.0,50,0.00,,,0.00,WUHU216HW,2013-01-20 22:38:00,
2013-01-20 17:43:00,54.4,36.1,30.02,North,0,0.0,0.0,50,0.00,,,0.00,WUHU216HW,2013-01-20 22:43:00,
2013-01-20 17:48:00,53.8,36.1,30.02,North,0,0.0,0.0,51,0.00,,,0.00,WUHU216HW,2013-01-20 22:48:00,
2013-01-20 17:53:00,53.6,35.9,30.02,North,0,0.0,0.0,51,0.00,,,0.00,WUHU216HW,2013-01-20 22:53:00,
2013-01-20 17:58:00,52.9,35.3,30.03,North,0,0.0,0.0,51,0.00,,,0.00,WUHU216HW,2013-01-20 22:58:00,
2013-01-20 18:03:00,52.4,35.3,30.03,North,0,0.0,0.0,52,0.00,,,0.00,WUHU216HW,2013-01-20 23:03:00,
2013-01-20 18:08:00,51.8,34.7,30.03,North,0,0.0,0.0,52,0.00,,,0.00,WUHU216HW,2013-01-20 23:08:00,
2013-01-20 18:13:00,51.3,34.8,30.03,North,0,0.0,0.0,53,0.00,,,0.00,WUHU216HW,2013-01-20 23:13:00,
2013-01-20 18:18:00,50.8,34.7,30.04,North,0,0.0,0.0,54,0.00,,,0.00,WUHU216HW,2013-01-20 23:18:00,
2013-01-20 18:23:00,50.2,34.7,30.04,North,0,0.0,0.0,55,0.00,,,0.00,WUHU216HW,2013-01-20 23:23:00,
2013-01-20 18:28:00,49.7,35.0,30.04,North,0,0.0,0.0,57,0.00,,,0.00,WUHU216HW,2013-01-20 23:28:00,
2013-01-20 18:33:00,49.3,34.8,30.05,North,0,0.0,0.0,57,0.00,,,0.00,WUHU216HW,2013-01-20 23:33:00,
2013-01-20 18:38:00,49.3,34.8,30.05,North,0,0.0,0.0,57,0.00,,,0.00,WUHU216HW,2013-01-20 23:38:00,
2013-01-20 18:43:00,49.3,34.2,30.05,North,0,0.0,0.0,56,0.00,,,0.00,WUHU216HW,2013-01-20 23:43:00,
2013-01-20 18:48:00,49.3,32.4,30.06,North,0,0.0,0.0,52,0.00,,,0.00,WUHU216HW,2013-01-20 23:48:00,
2013-01-20 18:53:00,50.6,32.7,30.06,North,0,0.0,0.0,50,0.00,,,0.00,WUHU216HW,2013-01-20 23:53:00,
2013-01-20 18:58:00,50.9,32.5,30.06,North,0,0.0,0.0,49,0.00,,,0.00,WUHU216HW,2013-01-20 23:58:00,
2013-01-20 19:03:00,51.1,32.0,30.06,North,0,0.0,0.0,48,0.00,,,0.00,WUHU216HW,2013-01-21 00:03:00,
2013-01-20 19:08:00,51.1,32.0,30.06,North,0,0.0,0.0,48,0.00,,,0.00,WUHU216HW,2013-01-21 00:08:00,
2013-01-20 19:13:00,50.8,31.2,30.06,North,0,0.0,0.0,47,0.00,,,0.00,WUHU216HW,2013-01-21 00:13:00,
2013-01-20 19:19:00,50.8,31.2,30.06,North,0,0.0,0.0,47,0.00,,,0.00,WUHU216HW,2013-01-21 00:19:00,
2013-01-20 19:24:00,50.8,30.6,30.06,North,0,0.0,0.0,46,0.00,,,0.00,WUHU216HW,2013-01-21 00:24:00,
2013-01-20 19:29:00,50.8,29.5,30.06,North,0,0.0,0.0,44,0.00,,,0.00,WUHU216HW,2013-01-21 00:29:00,
2013-01-20 19:34:00,50.8,29.5,30.07,North,0,0.0,0.0,44,0.00,,,0.00,WUHU216HW,2013-01-21 00:34:00,
2013-01-20 19:39:00,50.8,30.1,30.07,North,0,0.0,0.0,45,0.00,,,0.00,WUHU216HW,2013-01-21 00:39:00,
2013-01-20 19:44:00,50.4,29.2,30.07,North,0,0.0,0.0,44,0.00,,,0.00,WUHU216HW,2013-01-21 00:44:00,
2013-01-20 19:49:00,50.4,29.8,30.07,North,0,0.0,0.0,45,0.00,,,0.00,WUHU216HW,2013-01-21 00:49:00,
2013-01-20 19:53:00,50.0,29.4,30.07,North,0,0.0,0.0,45,0.00,,,0.00,WUHU216HW,2013-01-21 00:53:00,
2013-01-20 19:59:00,50.0,29.4,30.07,North,0,0.0,0.0,45,0.00,,,0.00,WUHU216HW,2013-01-21 00:59:00,
2013-01-20 20:04:00,49.7,29.6,30.07,North,0,0.0,0.0,46,0.00,,,0.00,WUHU216HW,2013-01-21 01:04:00,
2013-01-20 20:09:00,49.3,29.4,30.07,North,0,0.0,0.0,46,0.00,,,0.00,WUHU216HW,2013-01-21 01:09:00,
2013-01-20 20:14:00,49.1,29.7,30.07,North,0,0.0,0.0,47,0.00,,,0.00,WUHU216HW,2013-01-21 01:14:00,
2013-01-20 20:19:00,48.8,29.4,30.07,North,0,0.0,0.0,47,0.00,,,0.00,WUHU216HW,2013-01-21 01:19:00,
2013-01-20 20:24:00,48.8,29.4,30.07,North,0,0.0,0.0,47,0.00,,,0.00,WUHU216HW,2013-01-21 01:24:00,
2013-01-20 20:29:00,48.6,29.2,30.07,North,0,0.0,0.0,47,0.00,,,0.00,WUHU216HW,2013-01-21 01:29:00,
2013-01-20 20:34:00,48.4,29.0,30.07,North,0,0.0,0.0,47,0.00,,,0.00,WUHU216HW,2013-01-21 01:34:00,
2013-01-20 20:39:00,48.4,29.5,30.07,North,0,0.0,0.0,48,0.00,,,0.00,WUHU216HW,2013-01-21 01:39:00,
2013-01-20 20:44:00,48.1,29.7,30.07,North,0,0.0,0.0,49,0.00,,,0.00,WUHU216HW,2013-01-21 01:44:00,
2013-01-20 20:49:00,47.9,29.5,30.07,North,0,0.0,0.0,49,0.00,,,0.00,WUHU216HW,2013-01-21 01:49:00,
2013-01-20 20:54:00,47.5,29.3,30.08,North,0,0.0,0.0,49,0.00,,,0.00,WUHU216HW,2013-01-21 01:54:00,
2013-01-20 20:59:00,47.3,29.6,30.08,North,0,0.0,0.0,50,0.00,,,0.00,WUHU216HW,2013-01-21 01:59:00,
2013-01-20 21:04:00,47.2,29.9,30.08,North,0,0.0,0.0,51,0.00,,,0.00,WUHU216HW,2013-01-21 02:04:00,
2013-01-20 21:09:00,46.8,29.6,30.08,North,0,0.0,0.0,51,0.00,,,0.00,WUHU216HW,2013-01-21 02:09:00,
2013-01-20 21:14:00,46.4,29.3,30.08,North,0,0.0,0.0,51,0.00,,,0.00,WUHU216HW,2013-01-21 02:14:00,
2013-01-20 21:19:00,46.3,29.5,30.08,North,0,0.0,0.0,52,0.00,,,0.00,WUHU216HW,2013-01-21 02:19:00,
2013-01-20 21:24:00,46.1,29.3,30.08,North,0,0.0,0.0,52,0.00,,,0.00,WUHU216HW,2013-01-21 02:24:00,
2013-01-20 21:29:00,46.1,29.3,30.08,North,0,0.0,0.0,52,0.00,,,0.00,WUHU216HW,2013-01-21 02:29:00,
2013-01-20 21:34:00,46.1,29.3,30.08,North,0,0.0,0.0,52,0.00,,,0.00,WUHU216HW,2013-01-21 02:34:00,
2013-01-20 21:39:00,46.3,29.5,30.08,North,0,0.0,0.0,52,0.00,,,0.00,WUHU216HW,2013-01-21 02:39:00,
2013-01-20 21:44:00,46.3,30.0,30.08,North,0,0.0,0.0,53,0.00,,,0.00,WUHU216HW,2013-01-21 02:44:00,
2013-01-20 21:49:00,46.1,29.8,30.08,North,0,0.0,0.0,53,0.00,,,0.00,WUHU216HW,2013-01-21 02:49:00,
2013-01-20 21:54:00,45.7,30.0,30.09,North,0,0.0,0.0,54,0.00,,,0.00,WUHU216HW,2013-01-21 02:54:00,
2013-01-20 21:59:00,45.5,29.8,30.09,North,0,0.0,0.0,54,0.00,,,0.00,WUHU216HW,2013-01-21 02:59:00,
2013-01-20 22:04:00,45.0,29.8,30.09,North,0,0.0,0.0,55,0.00,,,0.00,WUHU216HW,2013-01-21 03:04:00,
2013-01-20 22:09:00,44.6,29.0,30.09,North,0,0.0,0.0,54,0.00,,,0.00,WUHU216HW,2013-01-21 03:09:00,
2013-01-20 22:14:00,44.5,29.3,30.09,North,0,0.0,0.0,55,0.00,,,0.00,WUHU216HW,2013-01-21 03:14:00,
2013-01-20 22:19:00,44.3,29.5,30.09,North,0,0.0,0.0,56,0.00,,,0.00,WUHU216HW,2013-01-21 03:19:00,
2013-01-20 22:24:00,43.7,29.0,30.09,North,0,0.0,0.0,56,0.00,,,0.00,WUHU216HW,2013-01-21 03:24:00,
2013-01-20 22:29:00,43.2,28.9,30.09,North,0,0.0,0.0,57,0.00,,,0.00,WUHU216HW,2013-01-21 03:29:00,
2013-01-20 22:34:00,42.7,28.9,30.09,North,0,0.0,0.0,58,0.00,,,0.00,WUHU216HW,2013-01-21 03:34:00,
2013-01-20 22:39:00,42.3,29.0,30.09,North,0,0.0,0.0,59,0.00,,,0.00,WUHU216HW,2013-01-21 03:39:00,
2013-01-20 22:44:00,42.5,29.2,30.09,North,0,0.0,0.0,59,0.00,,,0.00,WUHU216HW,2013-01-21 03:44:00,
2013-01-20 22:49:00,42.7,29.3,30.09,North,0,0.0,0.0,59,0.00,,,0.00,WUHU216HW,2013-01-21 03:49:00,
2013-01-20 22:54:00,42.5,29.2,30.09,North,0,0.0,0.0,59,0.00,,,0.00,WUHU216HW,2013-01-21 03:54:00,
2013-01-20 22:59:00,42.1,29.3,30.09,North,0,0.0,0.0,60,0.00,,,0.00,WUHU216HW,2013-01-21 03:59:00,
2013-01-20 23:04:00,42.1,29.3,30.09,North,0,0.0,0.0,60,0.00,,,0.00,WUHU216HW,2013-01-21 04:04:00,
2013-01-20 23:09:00,41.8,28.9,30.09,North,0,0.0,0.0,60,0.00,,,0.00,WUHU216HW,2013-01-21 04:09:00,
2013-01-20 23:14:00,41.6,29.2,30.09,North,0,0.0,0.0,61,0.00,,,0.00,WUHU216HW,2013-01-21 04:14:00,
2013-01-20 23:19:00,41.4,29.0,30.09,North,0,0.0,0.0,61,0.00,,,0.00,WUHU216HW,2013-01-21 04:19:00,
2013-01-20 23:24:00,40.9,28.4,30.09,North,0,0.0,0.0,61,0.00,,,0.00,WUHU216HW,2013-01-21 04:24:00,
2013-01-20 23:29:00,40.3,28.3,30.09,North,0,0.0,0.0,62,0.00,,,0.00,WUHU216HW,2013-01-21 04:29:00,
2013-01-20 23:34:00,40.1,28.5,30.09,North,0,0.0,0.0,63,0.00,,,0.00,WUHU216HW,2013-01-21 04:34:00,
2013-01-20 23:39:00,40.0,28.4,30.09,North,0,0.0,0.0,63,0.00,,,0.00,WUHU216HW,2013-01-21 04:39:00,
2013-01-20 23:44:00,40.0,28.4,30.09,North,0,0.0,0.0,63,0.00,,,0.00,WUHU216HW,2013-01-21 04:44:00,
2013-01-20 23:49:00,39.8,28.2,30.09,North,0,0.0,0.0,63,0.00,,,0.00,WUHU216HW,2013-01-21 04:49:00,
2013-01-20 23:54:00,39.2,27.6,30.09,North,0,0.0,0.0,63,0.00,,,0.00,WUHU216HW,2013-01-21 04:54:00,
2013-01-20 23:59:00,39.1,27.5,30.09,North,0,0.0,0.0,63,0.00,,,0.00,WUHU216HW,2013-01-21 04:59:00,